Time;durP1;ratioP1;P1;durP2;ratioP2;P2;SDS_P1;SDS_P2;PMS_P1;PMS_P2;Temp;Humidity;BMP_temperature;BMP_pressure;BME280_temperature;BME280_humidity;BME280_pressure;Samples;Min_cycle;Max_cycle;Signal;HPM_P1;HPM_P2
2021/09/17 00:00:35;;;;;;;;;;;;;;;14.47;93.93;101709.75;5049598;28;19924;-43
2021/09/17 00:03:02;;;;;;;;;;;;;;;14.57;93.61;101712.59;5050387;28;20156;-46
2021/09/17 00:05:30;;;;;;;;;;;;;;;14.60;93.35;101706.25;5064518;28;20320;-43
2021/09/17 00:07:56;;;;;;;;;;;;;;;14.60;93.45;101703.59;5049943;28;20422;-44
2021/09/17 00:10:23;;;;;;;;;;;;;;;14.57;93.59;101699.38;5048976;28;20352;-46
2021/09/17 00:12:50;;;;;;;;;;;;;;;14.60;93.75;101708.91;5048943;28;19928;-43
2021/09/17 00:15:17;;;;;;;;;;;;;;;14.59;93.74;101705.41;5049635;28;19929;-42
2021/09/17 00:17:44;;;;;;;;;;;;;;;14.63;93.74;101706.94;5065668;28;19928;-51
2021/09/17 00:20:11;;;;;;;;;;;;;;;14.63;93.45;101700.78;5048486;28;19931;-50
2021/09/17 00:22:38;;;;;;;;;;;;;;;14.60;93.47;101696.53;5049546;28;19935;-48
2021/09/17 00:25:06;;;;;;;;;;;;;;;14.64;93.76;101694.53;5065453;28;19925;-44
2021/09/17 00:27:33;;;;;;;;;;;;;;;14.61;93.74;101695.56;5063700;28;19929;-51
2021/09/17 00:29:59;;;;;;;;;;;;;;;14.67;93.76;101694.31;5065292;28;19952;-50
2021/09/17 00:32:26;;;;;;;;;;;;;;;14.60;94.24;101696.53;5031944;28;19982;-53
2021/09/17 00:34:53;;;;;;;;;;;;;;;14.59;94.37;101688.66;5048362;28;20364;-48
2021/09/17 00:37:20;;;;;;;;;;;;;;;14.58;94.49;101687.84;5049043;28;19979;-42
2021/09/17 00:39:46;;;;;;;;;;;;;;;14.61;94.55;101689.44;5064897;28;19931;-44
2021/09/17 00:42:13;;;;;;;;;;;;;;;14.58;94.64;101685.19;5048197;28;19929;-44
2021/09/17 00:44:40;;;;;;;;;;;;;;;14.59;94.23;101680.72;5048728;28;20387;-48
2021/09/17 00:47:07;;;;;;;;;;;;;;;14.67;94.29;101681.94;5049820;28;19924;-41
2021/09/17 00:49:33;;;;;;;;;;;;;;;14.66;93.96;101672.31;5049440;28;19929;-46
2021/09/17 00:52:00;;;;;;;;;;;;;;;14.63;94.47;101674.31;5048368;28;19929;-41
2021/09/17 00:54:27;;;;;;;;;;;;;;;14.59;94.28;101672.78;5049316;28;20441;-41
2021/09/17 00:56:53;;;;;;;;;;;;;;;14.61;94.52;101678.84;5048063;28;19933;-44
2021/09/17 00:59:20;;;;;;;;;;;;;;;14.66;94.41;101677.59;5063577;28;20376;-45
2021/09/17 01:01:47;;;;;;;;;;;;;;;14.65;94.20;101675.91;5050273;28;20440;-44
2021/09/17 01:04:14;;;;;;;;;;;;;;;14.65;94.55;101680.34;5048599;28;19925;-41
2021/09/17 01:06:43;;;;;;;;;;;;;;;14.61;94.45;101678.84;5048316;28;19931;-51
2021/09/17 01:09:09;;;;;;;;;;;;;;;14.60;94.33;101683.28;5049562;28;19925;-48
2021/09/17 01:11:36;;;;;;;;;;;;;;;14.70;94.22;101668.50;5064967;28;20027;-53
2021/09/17 01:14:03;;;;;;;;;;;;;;;14.68;94.03;101673.06;5047786;28;20361;-51
2021/09/17 01:16:30;;;;;;;;;;;;;;;14.75;93.74;101669.97;5049414;28;20370;-50
2021/09/17 01:18:57;;;;;;;;;;;;;;;14.68;94.02;101664.25;5064069;28;19936;-52
2021/09/17 01:21:24;;;;;;;;;;;;;;;14.73;93.83;101662.13;5049439;28;19963;-45
2021/09/17 01:23:50;;;;;;;;;;;;;;;14.74;93.89;101662.97;5065452;28;19929;-44
2021/09/17 01:26:17;;;;;;;;;;;;;;;14.75;94.20;101659.38;5051956;28;20426;-43
2021/09/17 01:28:44;;;;;;;;;;;;;;;14.70;93.93;101657.91;5050192;28;19978;-49
2021/09/17 01:31:11;;;;;;;;;;;;;;;14.81;93.95;101661.59;5052901;28;20284;-44
2021/09/17 01:33:38;;;;;;;;;;;;;;;14.74;94.00;101650.59;5051648;28;19947;-45
2021/09/17 01:36:06;;;;;;;;;;;;;;;14.80;94.12;101657.25;5053577;28;19924;-43
2021/09/17 01:38:33;;;;;;;;;;;;;;;14.76;94.05;101648.66;5051106;28;19975;-44
2021/09/17 01:41:00;;;;;;;;;;;;;;;14.78;93.89;101651.22;5052731;28;20291;-44
2021/09/17 01:43:27;;;;;;;;;;;;;;;14.70;94.49;101651.75;5050643;28;20019;-51
2021/09/17 01:45:54;;;;;;;;;;;;;;;14.68;95.07;101653.66;5053070;28;19936;-51
2021/09/17 01:48:21;;;;;;;;;;;;;;;14.72;94.34;101646.34;5052741;28;19924;-48
2021/09/17 01:50:48;;;;;;;;;;;;;;;14.75;94.37;101646.13;5052423;28;19932;-52
2021/09/17 01:53:14;;;;;;;;;;;;;;;14.78;94.03;101643.25;5051693;28;19987;-51
2021/09/17 01:55:41;;;;;;;;;;;;;;;14.76;93.95;101645.19;5051539;28;19933;-44
2021/09/17 01:58:08;;;;;;;;;;;;;;;14.79;94.12;101650.25;5051451;28;20614;-51
2021/09/17 02:00:35;;;;;;;;;;;;;;;14.72;94.27;101644.53;5051641;28;19970;-42
2021/09/17 02:03:01;;;;;;;;;;;;;;;14.70;94.45;101649.94;5068412;28;20371;-43
2021/09/17 02:05:29;;;;;;;;;;;;;;;14.68;94.54;101632.47;5051429;28;19970;-44
2021/09/17 02:07:57;;;;;;;;;;;;;;;14.73;94.14;101643.59;5052177;28;19925;-43
2021/09/17 02:10:24;;;;;;;;;;;;;;;14.70;94.55;101655.25;5052379;28;20288;-42
2021/09/17 02:12:51;;;;;;;;;;;;;;;14.63;95.13;101648.69;5050837;28;19925;-51
2021/09/17 02:15:17;;;;;;;;;;;;;;;14.69;94.80;101645.59;5050633;28;19971;-51
2021/09/17 02:17:44;;;;;;;;;;;;;;;14.64;94.77;101641.59;5034583;28;19941;-52
2021/09/17 02:20:11;;;;;;;;;;;;;;;14.70;95.20;101636.72;5051731;28;20342;-52
2021/09/17 02:22:38;;;;;;;;;;;;;;;14.75;94.83;101632.91;5051829;28;19925;-53
2021/09/17 02:25:05;;;;;;;;;;;;;;;14.72;94.88;101638.41;5050491;28;19955;-51
2021/09/17 02:27:32;;;;;;;;;;;;;;;14.69;95.32;101635.00;5050537;28;19929;-45
2021/09/17 02:29:59;;;;;;;;;;;;;;;14.70;95.24;101634.06;5051853;28;20272;-42
2021/09/17 02:32:25;;;;;;;;;;;;;;;14.71;95.27;101632.25;5067572;28;20265;-41
2021/09/17 02:34:52;;;;;;;;;;;;;;;14.72;95.48;101630.47;5050334;28;19925;-42
2021/09/17 02:37:19;;;;;;;;;;;;;;;14.72;95.37;101625.19;5050782;28;19925;-44
2021/09/17 02:39:45;;;;;;;;;;;;;;;14.73;95.39;101630.34;5051088;28;19925;-43
2021/09/17 02:42:12;;;;;;;;;;;;;;;14.77;95.49;101631.00;5048290;28;19925;-44
2021/09/17 02:44:39;;;;;;;;;;;;;;;14.77;94.86;101634.47;5050576;28;19929;-45
2021/09/17 02:47:06;;;;;;;;;;;;;;;14.81;94.74;101628.03;5051798;28;19925;-49
2021/09/17 02:49:35;;;;;;;;;;;;;;;14.88;94.38;101623.13;5051041;28;20019;-45
2021/09/17 02:52:02;;;;;;;;;;;;;;;14.91;94.41;101624.72;5051430;28;19925;-44
2021/09/17 02:54:29;;;;;;;;;;;;;;;14.96;94.07;101630.53;5050521;28;19928;-43
2021/09/17 02:56:56;;;;;;;;;;;;;;;14.95;93.93;101626.19;5050851;28;19928;-44
2021/09/17 02:59:23;;;;;;;;;;;;;;;14.86;94.71;101622.38;5049918;28;19925;-46
2021/09/17 03:01:49;;;;;;;;;;;;;;;14.84;94.86;101613.72;5051320;28;19979;-47
2021/09/17 03:04:16;;;;;;;;;;;;;;;14.81;95.05;101619.25;5050590;28;19979;-44
2021/09/17 03:06:43;;;;;;;;;;;;;;;14.79;95.43;101608.75;5051186;28;19982;-48
2021/09/17 03:09:10;;;;;;;;;;;;;;;14.82;95.35;101608.53;5051138;28;20456;-45
2021/09/17 03:11:37;;;;;;;;;;;;;;;14.90;94.52;101615.91;5049909;28;19925;-44
2021/09/17 03:14:03;;;;;;;;;;;;;;;14.86;94.80;101599.41;5049435;28;20280;-49
2021/09/17 03:16:30;;;;;;;;;;;;;;;14.85;94.57;101597.72;5049536;28;19974;-52
2021/09/17 03:18:57;;;;;;;;;;;;;;;14.87;94.85;101602.91;5049952;28;19932;-52
2021/09/17 03:21:24;;;;;;;;;;;;;;;14.89;94.42;101598.34;5050577;28;19924;-51
2021/09/17 03:23:50;;;;;;;;;;;;;;;14.83;94.88;101596.13;5048834;28;19928;-53
2021/09/17 03:26:19;;;;;;;;;;;;;;;14.82;94.82;101594.44;5065785;28;19925;-46
2021/09/17 03:28:46;;;;;;;;;;;;;;;14.76;95.13;101585.13;5049368;28;19968;-47
2021/09/17 03:31:13;;;;;;;;;;;;;;;14.81;94.85;101587.47;5065837;28;19999;-45
2021/09/17 03:33:40;;;;;;;;;;;;;;;14.78;94.83;101588.53;5049143;28;20433;-42
2021/09/17 03:36:06;;;;;;;;;;;;;;;14.78;95.01;101587.66;5050892;28;19931;-43
2021/09/17 03:38:33;;;;;;;;;;;;;;;14.75;95.12;101585.25;5050163;28;19929;-51
2021/09/17 03:41:02;;;;;;;;;;;;;;;14.72;95.43;101588.13;5066218;28;19928;-54
2021/09/17 03:43:29;;;;;;;;;;;;;;;14.68;95.88;101583.03;5048307;28;19955;-50
2021/09/17 03:45:56;;;;;;;;;;;;;;;14.71;95.74;101584.59;5050351;28;19925;-50
2021/09/17 03:48:22;;;;;;;;;;;;;;;14.73;95.15;101576.56;5049023;28;19929;-52
2021/09/17 03:50:49;;;;;;;;;;;;;;;14.75;95.45;101586.09;5049679;28;19925;-54
2021/09/17 03:53:16;;;;;;;;;;;;;;;14.81;94.68;101579.53;5049914;28;19935;-52
2021/09/17 03:55:43;;;;;;;;;;;;;;;14.77;95.27;101584.19;5050348;28;20376;-52
2021/09/17 03:58:10;;;;;;;;;;;;;;;14.73;95.07;101576.56;5047643;28;19932;-51
2021/09/17 04:00:36;;;;;;;;;;;;;;;14.72;95.07;101577.53;5049869;28;20034;-44
2021/09/17 04:03:04;;;;;;;;;;;;;;;14.75;95.36;101574.66;5065572;28;20422;-44
2021/09/17 04:05:33;;;;;;;;;;;;;;;14.74;95.35;101580.91;5049781;28;19928;-49
2021/09/17 04:08:01;;;;;;;;;;;;;;;14.74;95.33;101576.47;5048480;28;20374;-50
2021/09/17 04:10:28;;;;;;;;;;;;;;;14.72;95.66;101574.88;5065172;28;19929;-50
2021/09/17 04:12:54;;;;;;;;;;;;;;;14.72;95.57;101574.88;5048326;28;19931;-52
2021/09/17 04:15:22;;;;;;;;;;;;;;;14.70;95.44;101578.47;5048156;28;19939;-50
2021/09/17 04:17:48;;;;;;;;;;;;;;;14.72;95.86;101580.16;5050017;28;19932;-50
2021/09/17 04:20:19;;;;;;;;;;;;;;;14.81;95.14;101577.72;5049276;28;20386;-49
2021/09/17 04:22:46;;;;;;;;;;;;;;;14.80;94.84;101578.66;5065172;28;20852;-50
2021/09/17 04:25:13;;;;;;;;;;;;;;;14.78;95.41;101577.94;5064876;28;20536;-51
2021/09/17 04:27:43;;;;;;;;;;;;;;;14.80;95.00;101567.22;5048857;28;20406;-50
2021/09/17 04:30:12;;;;;;;;;;;;;;;14.79;94.89;101571.69;5048666;28;19955;-48
2021/09/17 04:32:39;;;;;;;;;;;;;;;14.75;94.94;101578.16;5064889;28;19932;-53
2021/09/17 04:35:06;;;;;;;;;;;;;;;14.77;95.11;101573.59;5049995;28;19978;-44
2021/09/17 04:37:33;;;;;;;;;;;;;;;14.77;95.33;101575.41;5047973;28;19925;-43
2021/09/17 04:39:59;;;;;;;;;;;;;;;14.76;95.57;101576.34;5048546;28;19929;-44
2021/09/17 04:42:26;;;;;;;;;;;;;;;14.73;95.57;101572.13;5047958;28;20658;-42
2021/09/17 04:44:53;;;;;;;;;;;;;;;14.73;95.61;101569.47;5048343;28;19925;-43
2021/09/17 04:47:20;;;;;;;;;;;;;;;14.67;96.45;101572.53;5049893;28;19929;-42
2021/09/17 04:49:46;;;;;;;;;;;;;;;14.65;96.81;101571.81;5049373;28;19929;-42
2021/09/17 04:52:13;;;;;;;;;;;;;;;14.64;96.76;101578.06;5049502;28;19924;-43
2021/09/17 04:54:40;;;;;;;;;;;;;;;14.64;96.77;101572.75;5049334;28;19935;-43
2021/09/17 04:57:07;;;;;;;;;;;;;;;14.75;96.30;101577.28;5049280;28;19932;-42
2021/09/17 04:59:33;;;;;;;;;;;;;;;14.74;96.26;101575.59;5066746;28;19925;-43
2021/09/17 05:02:00;;;;;;;;;;;;;;;14.73;96.21;101580.06;5053536;28;19956;-50
2021/09/17 05:04:30;;;;;;;;;;;;;;;14.73;96.42;101576.56;5052786;28;19955;-51
2021/09/17 05:06:58;;;;;;;;;;;;;;;14.76;96.57;101577.19;5053469;28;19932;-49
2021/09/17 05:09:25;;;;;;;;;;;;;;;14.78;96.53;101569.13;5053242;28;19928;-48
2021/09/17 05:11:52;;;;;;;;;;;;;;;14.75;96.98;101569.34;5052787;28;19959;-47
2021/09/17 05:14:18;;;;;;;;;;;;;;;14.72;97.38;101574.88;5067305;28;20578;-47
2021/09/17 05:16:45;;;;;;;;;;;;;;;14.75;97.13;101574.66;5053177;28;20288;-48
2021/09/17 05:19:12;;;;;;;;;;;;;;;14.76;96.81;101574.53;5052842;28;20783;-44
2021/09/17 05:21:39;;;;;;;;;;;;;;;14.80;96.84;101578.66;5053175;28;19931;-42
2021/09/17 05:24:06;;;;;;;;;;;;;;;14.81;96.37;101574.22;5051813;28;19933;-42
2021/09/17 05:26:33;;;;;;;;;;;;;;;14.79;96.49;101568.19;5068869;28;19929;-41
2021/09/17 05:29:00;;;;;;;;;;;;;;;14.81;96.96;101568.94;5066552;28;19932;-42
2021/09/17 05:31:26;;;;;;;;;;;;;;;14.88;96.45;101570.19;5053430;28;19928;-42
2021/09/17 05:33:53;;;;;;;;;;;;;;;14.86;96.15;101567.63;5050975;28;20439;-41
2021/09/17 05:36:20;;;;;;;;;;;;;;;14.86;96.51;101572.94;5052849;28;19929;-41
2021/09/17 05:38:47;;;;;;;;;;;;;;;14.86;96.84;101577.38;5050717;28;20380;-41
2021/09/17 05:41:16;;;;;;;;;;;;;;;14.90;96.48;101578.00;5051415;28;20007;-42
2021/09/17 05:43:42;;;;;;;;;;;;;;;14.91;96.70;101575.25;5050993;28;19924;-41
2021/09/17 05:46:09;;;;;;;;;;;;;;;14.94;96.42;101577.66;5052357;28;19971;-42
2021/09/17 05:48:36;;;;;;;;;;;;;;;14.99;96.16;101582.66;5067749;28;19924;-42
2021/09/17 05:51:03;;;;;;;;;;;;;;;14.94;96.53;101588.25;5051973;28;20399;-44
2021/09/17 05:53:29;;;;;;;;;;;;;;;14.95;96.76;101578.53;5052166;28;19982;-45
2021/09/17 05:55:56;;;;;;;;;;;;;;;14.99;96.87;101585.28;5052380;28;19929;-44
2021/09/17 05:58:27;;;;;;;;;;;;;;;15.01;96.50;101576.28;5050873;28;19951;-44
2021/09/17 06:00:54;;;;;;;;;;;;;;;15.00;96.54;101577.22;5051315;28;19928;-44
2021/09/17 06:03:21;;;;;;;;;;;;;;;15.01;96.43;101581.56;5052579;28;19940;-42
2021/09/17 06:05:48;;;;;;;;;;;;;;;15.03;96.48;101577.00;5051962;28;19928;-46
2021/09/17 06:08:15;;;;;;;;;;;;;;;15.06;96.55;101585.69;5052233;28;19940;-44
2021/09/17 06:10:42;;;;;;;;;;;;;;;15.08;96.63;101578.47;5067342;28;20380;-43
2021/09/17 06:13:08;;;;;;;;;;;;;;;15.11;95.87;101581.75;5049770;28;19963;-49
2021/09/17 06:15:35;;;;;;;;;;;;;;;15.11;95.47;101583.56;5052064;28;20383;-49
2021/09/17 06:18:02;;;;;;;;;;;;;;;15.09;95.82;101574.88;5052307;28;19956;-52
2021/09/17 06:20:29;;;;;;;;;;;;;;;15.08;95.88;101581.13;5051423;28;19925;-52
2021/09/17 06:22:55;;;;;;;;;;;;;;;15.10;95.72;101573.91;5051971;28;19928;-44
2021/09/17 06:25:23;;;;;;;;;;;;;;;15.13;95.58;101576.34;5052024;28;19948;-41
2021/09/17 06:27:50;;;;;;;;;;;;;;;15.14;95.36;101578.03;5065418;28;19970;-44
2021/09/17 06:30:17;;;;;;;;;;;;;;;15.21;95.33;101587.22;5051706;28;20367;-43
2021/09/17 06:32:45;;;;;;;;;;;;;;;15.15;95.99;101585.88;5067680;28;19925;-52
2021/09/17 06:35:12;;;;;;;;;;;;;;;15.18;95.96;101582.16;5051249;28;19925;-53
2021/09/17 06:37:49;;;;;;;;;;;;;;;15.25;95.62;101586.03;5051411;28;19933;-49
2021/09/17 06:40:16;;;;;;;;;;;;;;;15.29;95.98;101584.84;5050404;28;19932;-49
2021/09/17 06:42:43;;;;;;;;;;;;;;;15.37;96.04;101582.47;5050447;28;20016;-53
2021/09/17 06:45:09;;;;;;;;;;;;;;;15.47;96.04;101589.75;5051196;28;20414;-49
2021/09/17 06:47:46;;;;;;;;;;;;;;;15.53;95.84;101584.03;5067086;28;19924;-52
2021/09/17 06:50:14;;;;;;;;;;;;;;;15.57;95.62;101582.81;5051185;28;19924;-45
2021/09/17 06:52:47;;;;;;;;;;;;;;;15.63;95.64;101582.34;5066934;28;19978;-43
2021/09/17 06:55:14;;;;;;;;;;;;;;;15.73;95.22;101582.50;5065830;28;19925;-42
2021/09/17 06:57:42;;;;;;;;;;;;;;;15.76;95.08;101581.44;5050377;28;20403;-40
2021/09/17 07:00:09;;;;;;;;;;;;;;;15.79;94.27;101586.50;5051154;28;19925;-52
2021/09/17 07:02:36;;;;;;;;;;;;;;;15.85;92.76;101578.94;5066713;28;19959;-51
2021/09/17 07:05:04;;;;;;;;;;;;;;;15.91;92.38;101582.97;5050996;28;19925;-51
2021/09/17 07:07:31;;;;;;;;;;;;;;;15.92;92.28;101581.16;5051156;28;19935;-52
2021/09/17 07:09:58;;;;;;;;;;;;;;;15.94;92.12;101573.91;5051067;28;19924;-50
2021/09/17 07:12:25;;;;;;;;;;;;;;;16.03;92.07;101581.16;5049294;28;19929;-52
2021/09/17 07:14:51;;;;;;;;;;;;;;;16.09;91.77;101577.19;5050768;28;19931;-45
2021/09/17 07:17:18;;;;;;;;;;;;;;;16.14;90.89;101580.34;5050926;28;19999;-44
2021/09/17 07:19:45;;;;;;;;;;;;;;;16.19;91.16;101579.00;5049999;28;19928;-43
2021/09/17 07:22:11;;;;;;;;;;;;;;;16.19;91.38;101573.72;5049694;28;19925;-43
2021/09/17 07:24:38;;;;;;;;;;;;;;;16.22;90.48;101573.50;5049547;28;19925;-44
2021/09/17 07:27:05;;;;;;;;;;;;;;;16.23;89.68;101569.84;5050089;28;20038;-53
2021/09/17 07:29:32;;;;;;;;;;;;;;;16.28;88.65;101571.31;5049913;28;20281;-53
2021/09/17 07:31:59;;;;;;;;;;;;;;;16.33;88.92;101571.78;5051241;28;20364;-49
2021/09/17 07:34:26;;;;;;;;;;;;;;;16.38;88.84;101575.78;5050074;28;19948;-44
2021/09/17 07:36:53;;;;;;;;;;;;;;;16.41;88.47;101576.50;5050673;28;19924;-50
2021/09/17 07:39:20;;;;;;;;;;;;;;;16.47;87.69;101570.72;5050090;28;19948;-49
2021/09/17 07:41:46;;;;;;;;;;;;;;;16.51;87.58;101577.47;5049591;28;19994;-51
2021/09/17 07:44:13;;;;;;;;;;;;;;;16.54;87.50;101580.72;5049433;28;19932;-51
2021/09/17 07:46:40;;;;;;;;;;;;;;;16.61;87.94;101573.13;5066132;28;20277;-52
2021/09/17 07:49:07;;;;;;;;;;;;;;;16.67;87.82;101577.94;5065520;28;20313;-53
2021/09/17 07:51:33;;;;;;;;;;;;;;;16.70;87.43;101575.06;5065777;28;19925;-47
2021/09/17 07:54:00;;;;;;;;;;;;;;;16.78;86.40;101573.59;5050237;28;20027;-51
2021/09/17 07:56:27;;;;;;;;;;;;;;;16.80;85.76;101577.81;5049159;28;20327;-50
2021/09/17 07:58:53;;;;;;;;;;;;;;;16.88;86.03;101575.38;5047674;28;19925;-52
2021/09/17 08:01:20;;;;;;;;;;;;;;;16.96;86.31;101577.47;5050263;28;20391;-49
2021/09/17 08:03:47;;;;;;;;;;;;;;;17.06;85.27;101573.09;5049971;28;19994;-51
2021/09/17 08:06:15;;;;;;;;;;;;;;;17.14;85.45;101579.56;5050359;28;19925;-52
2021/09/17 08:08:42;;;;;;;;;;;;;;;17.21;85.20;101578.97;5049881;28;20027;-51
2021/09/17 08:11:08;;;;;;;;;;;;;;;17.26;84.15;101580.41;5050370;28;19924;-50
2021/09/17 08:13:35;;;;;;;;;;;;;;;17.36;83.50;101574.19;5048577;28;20280;-49
2021/09/17 08:16:02;;;;;;;;;;;;;;;17.38;83.50;101574.06;5050215;28;19928;-49
2021/09/17 08:18:29;;;;;;;;;;;;;;;17.51;83.34;101574.75;5049977;28;19975;-44
2021/09/17 08:20:58;;;;;;;;;;;;;;;17.52;83.30;101572.91;5049142;28;19936;-44
2021/09/17 08:23:25;;;;;;;;;;;;;;;17.55;80.79;101575.34;5049469;28;20426;-44
2021/09/17 08:25:54;;;;;;;;;;;;;;;17.62;80.92;101568.53;5065496;28;19983;-43
2021/09/17 08:28:21;;;;;;;;;;;;;;;17.78;81.78;101575.22;5048273;28;19924;-43
2021/09/17 08:30:48;;;;;;;;;;;;;;;17.82;82.33;101566.84;5049517;28;20387;-46
2021/09/17 08:33:15;;;;;;;;;;;;;;;17.85;82.03;101568.41;5052011;28;19952;-48
2021/09/17 08:35:42;;;;;;;;;;;;;;;17.98;80.80;101562.91;5054308;28;19925;-43
2021/09/17 08:38:09;;;;;;;;;;;;;;;17.98;79.96;101565.56;5052609;28;19933;-44
2021/09/17 08:40:36;;;;;;;;;;;;;;;18.13;81.11;101568.75;5052723;28;19924;-44
2021/09/17 08:43:02;;;;;;;;;;;;;;;18.19;79.69;101568.22;5052326;28;19925;-45
2021/09/17 08:45:30;;;;;;;;;;;;;;;18.29;80.49;101571.78;5053834;28;19925;-43
2021/09/17 08:47:57;;;;;;;;;;;;;;;18.47;78.11;101566.66;5069545;28;20401;-45
2021/09/17 08:50:24;;;;;;;;;;;;;;;18.59;76.26;101568.25;5052297;28;19967;-44
2021/09/17 08:52:51;;;;;;;;;;;;;;;18.65;76.94;101561.56;5053710;28;19924;-47
2021/09/17 08:55:18;;;;;;;;;;;;;;;18.75;76.73;101566.91;5051627;28;19964;-44
2021/09/17 08:57:45;;;;;;;;;;;;;;;18.81;75.14;101565.50;5052325;28;19929;-44
2021/09/17 09:00:27;;;;;;;;;;;;;;;19.04;73.76;101566.16;5068999;28;19929;-43
2021/09/17 09:02:54;;;;;;;;;;;;;;;19.29;73.62;101562.09;5052429;28;19925;-44
2021/09/17 09:05:27;;;;;;;;;;;;;;;19.13;73.21;101553.81;5053255;28;19929;-44
2021/09/17 09:07:54;;;;;;;;;;;;;;;19.16;73.79;101558.88;5053184;28;20273;-49
2021/09/17 09:10:21;;;;;;;;;;;;;;;19.28;71.53;101562.22;5068509;28;19924;-53
2021/09/17 09:12:48;;;;;;;;;;;;;;;19.35;73.45;101563.38;5051183;28;19933;-52
2021/09/17 09:15:20;;;;;;;;;;;;;;;19.41;73.77;101566.34;5053049;28;19932;-53
2021/09/17 09:17:47;;;;;;;;;;;;;;;19.54;73.06;101562.53;5052136;28;20647;-53
2021/09/17 09:20:32;;;;;;;;;;;;;;;19.66;73.72;101564.06;5068054;28;19932;-54
2021/09/17 09:23:08;;;;;;;;;;;;;;;19.80;72.03;101562.81;5053008;28;19932;-54
2021/09/17 09:25:49;;;;;;;;;;;;;;;19.89;70.80;101567.28;5053188;28;19929;-49
2021/09/17 09:28:16;;;;;;;;;;;;;;;19.92;70.15;101568.84;5066600;28;20401;-54
2021/09/17 09:30:43;;;;;;;;;;;;;;;20.00;70.48;101560.09;5053244;28;19932;-48
2021/09/17 09:33:39;;;;;;;;;;;;;;;20.09;69.88;101562.72;5052786;28;19930;-46
2021/09/17 09:36:13;;;;;;;;;;;;;;;20.20;70.46;101555.53;5061344;28;19928;-50
2021/09/17 09:38:40;;;;;;;;;;;;;;;20.37;70.25;101552.09;5053701;28;19971;-44
2021/09/17 09:41:09;;;;;;;;;;;;;;;20.28;69.22;101555.66;5052933;28;20335;-53
2021/09/17 09:43:37;;;;;;;;;;;;;;;20.23;68.09;101558.78;5051331;28;19974;-53
2021/09/17 09:46:22;;;;;;;;;;;;;;;20.41;68.26;101555.28;5050474;28;19979;-53
2021/09/17 09:48:58;;;;;;;;;;;;;;;20.61;68.52;101553.38;5052556;28;19994;-51
2021/09/17 09:51:25;;;;;;;;;;;;;;;20.76;67.50;101543.94;5052084;28;20265;-53
2021/09/17 09:53:52;;;;;;;;;;;;;;;20.97;65.79;101544.63;5052246;28;20547;-46
2021/09/17 09:56:19;;;;;;;;;;;;;;;20.98;64.53;101547.13;5051417;28;19925;-45
2021/09/17 09:58:46;;;;;;;;;;;;;;;20.99;65.20;101545.31;5065779;28;19925;-44
2021/09/17 10:01:12;;;;;;;;;;;;;;;21.11;66.00;101544.94;5067211;28;19978;-46
2021/09/17 10:03:39;;;;;;;;;;;;;;;21.20;63.17;101535.16;5067062;28;20411;-53
2021/09/17 10:06:06;;;;;;;;;;;;;;;21.34;63.16;101547.16;5067387;28;19925;-52
2021/09/17 10:08:33;;;;;;;;;;;;;;;21.31;61.66;101541.25;5051835;28;19928;-53
2021/09/17 10:11:00;;;;;;;;;;;;;;;21.40;62.45;101546.53;5067906;28;19931;-53
2021/09/17 10:13:27;;;;;;;;;;;;;;;21.53;62.87;101548.00;5050492;28;19928;-50
2021/09/17 10:15:54;;;;;;;;;;;;;;;21.69;62.58;101545.47;5067601;28;19929;-52
2021/09/17 10:18:20;;;;;;;;;;;;;;;21.77;62.44;101542.84;5067456;28;19925;-53
2021/09/17 10:20:49;;;;;;;;;;;;;;;21.75;62.30;101544.81;5051904;28;19928;-53
2021/09/17 10:23:32;;;;;;;;;;;;;;;21.74;61.74;101548.50;5051225;28;20395;-52
2021/09/17 10:26:05;;;;;;;;;;;;;;;21.83;63.34;101551.22;5067731;28;19928;-50
2021/09/17 10:28:33;;;;;;;;;;;;;;;21.83;61.89;101546.72;5049241;28;19944;-51
2021/09/17 10:31:09;;;;;;;;;;;;;;;21.96;62.34;101557.00;5067504;28;20342;-52
2021/09/17 10:33:36;;;;;;;;;;;;;;;22.06;62.03;101555.06;5052084;28;20031;-53
2021/09/17 10:36:03;;;;;;;;;;;;;;;22.06;61.24;101557.75;5051994;28;19928;-56
2021/09/17 10:38:33;;;;;;;;;;;;;;;22.06;60.44;101549.72;5051329;28;20331;-50
2021/09/17 10:41:03;;;;;;;;;;;;;;;22.18;61.90;101547.59;5051507;28;20291;-53
2021/09/17 10:43:30;;;;;;;;;;;;;;;22.23;61.64;101547.94;5049853;28;20027;-52
2021/09/17 10:46:09;;;;;;;;;;;;;;;22.10;61.18;101548.41;5051759;28;19967;-53
2021/09/17 10:48:45;;;;;;;;;;;;;;;22.16;60.66;101548.78;5052038;28;19925;-52
2021/09/17 10:51:30;;;;;;;;;;;;;;;22.39;62.12;101547.22;5051762;28;20304;-54
2021/09/17 10:53:58;;;;;;;;;;;;;;;22.51;60.98;101549.59;5051760;28;20339;-54
2021/09/17 10:56:25;;;;;;;;;;;;;;;22.56;60.86;101549.97;5051051;28;20288;-43
2021/09/17 10:59:09;;;;;;;;;;;;;;;22.66;60.12;101545.31;5065015;28;19974;-45
2021/09/17 11:01:50;;;;;;;;;;;;;;;22.55;60.56;101546.47;5050569;28;19936;-54
2021/09/17 11:04:21;;;;;;;;;;;;;;;22.59;60.39;101541.59;5049905;28;19953;-51
2021/09/17 11:06:48;;;;;;;;;;;;;;;22.51;61.27;101537.06;5050972;28;19956;-54
2021/09/17 11:09:14;;;;;;;;;;;;;;;22.66;60.20;101534.59;5049757;28;19966;-54
2021/09/17 11:11:42;;;;;;;;;;;;;;;22.70;60.52;101535.09;5049641;28;20295;-49
2021/09/17 11:14:14;;;;;;;;;;;;;;;22.62;60.58;101530.56;5049735;28;19932;-49
2021/09/17 11:16:42;;;;;;;;;;;;;;;22.81;60.02;101544.69;5066647;28;19929;-49
2021/09/17 11:19:09;;;;;;;;;;;;;;;22.90;59.95;101535.66;5050566;28;20299;-50
2021/09/17 11:21:40;;;;;;;;;;;;;;;22.90;60.52;101533.81;5049762;28;19975;-51
2021/09/17 11:24:15;;;;;;;;;;;;;;;23.13;59.26;101528.66;5066098;28;19924;-53
2021/09/17 11:26:43;;;;;;;;;;;;;;;23.57;59.88;101535.56;5065893;28;19932;-51
2021/09/17 11:29:11;;;;;;;;;;;;;;;23.97;58.92;101530.34;5049965;28;20433;-45
2021/09/17 11:31:45;;;;;;;;;;;;;;;24.06;56.87;101521.22;5066797;28;19950;-50
2021/09/17 11:34:12;;;;;;;;;;;;;;;24.11;56.63;101531.47;5050262;28;19933;-53
2021/09/17 11:36:40;;;;;;;;;;;;;;;24.11;57.30;101534.97;5050644;28;19925;-52
2021/09/17 11:39:13;;;;;;;;;;;;;;;24.15;55.68;101532.78;5050167;28;19952;-49
2021/09/17 11:41:40;;;;;;;;;;;;;;;24.47;55.31;101526.44;5050648;28;19948;-53
2021/09/17 11:44:07;;;;;;;;;;;;;;;24.16;54.52;101536.31;5049213;28;20027;-51
2021/09/17 11:46:35;;;;;;;;;;;;;;;24.31;54.94;101531.91;5049466;28;19932;-49
2021/09/17 11:49:02;;;;;;;;;;;;;;;24.33;55.61;101529.03;5065866;28;19979;-54
2021/09/17 11:51:29;;;;;;;;;;;;;;;24.24;55.36;101520.16;5049600;28;19931;-53
2021/09/17 11:53:56;;;;;;;;;;;;;;;24.09;54.92;101523.56;5050506;28;19925;-47
2021/09/17 11:56:23;;;;;;;;;;;;;;;24.27;54.98;101531.41;5050083;28;19971;-48
2021/09/17 11:58:50;;;;;;;;;;;;;;;23.95;54.57;101526.97;5048820;28;19925;-44
2021/09/17 12:01:22;;;;;;;;;;;;;;;24.20;53.28;101524.19;5048751;28;20418;-47
2021/09/17 12:03:50;;;;;;;;;;;;;;;24.01;54.29;101520.91;5050061;28;20375;-43
2021/09/17 12:06:17;;;;;;;;;;;;;;;24.18;55.13;101516.31;5050001;28;19931;-42
2021/09/17 12:08:44;;;;;;;;;;;;;;;24.43;54.61;101518.91;5049935;28;19947;-45
2021/09/17 12:11:11;;;;;;;;;;;;;;;24.41;54.41;101518.25;5050322;28;19925;-46
2021/09/17 12:13:39;;;;;;;;;;;;;;;24.54;54.57;101512.28;5048870;28;20398;-45
2021/09/17 12:16:06;;;;;;;;;;;;;;;24.45;55.60;101516.88;5050521;28;19978;-46
2021/09/17 12:18:33;;;;;;;;;;;;;;;24.43;53.47;101514.38;5049164;28;20434;-48
2021/09/17 12:21:02;;;;;;;;;;;;;;;24.58;53.48;101519.84;5049366;28;19925;-47
2021/09/17 12:23:49;;;;;;;;;;;;;;;24.32;54.67;101517.44;5050758;28;19929;-45
2021/09/17 12:26:23;;;;;;;;;;;;;;;24.30;54.07;101514.91;5055127;28;19924;-49
2021/09/17 12:28:51;;;;;;;;;;;;;;;24.23;54.46;101513.94;5061127;28;19925;-44
2021/09/17 12:31:28;;;;;;;;;;;;;;;24.18;56.10;101513.63;5054669;28;19975;-42
2021/09/17 12:34:08;;;;;;;;;;;;;;;24.01;55.71;101506.63;5061263;28;19925;-44
2021/09/17 12:36:35;;;;;;;;;;;;;;;24.23;56.16;101507.75;5050027;28;20349;-43
2021/09/17 12:39:06;;;;;;;;;;;;;;;24.36;55.70;101502.63;5049755;28;20388;-44